Time;durP1;ratioP1;P1;durP2;ratioP2;P2;SDS_P1;SDS_P2;PMS_P1;PMS_P2;Temp;Humidity;BMP_temperature;BMP_pressure;BME280_temperature;BME280_humidity;BME280_pressure;Samples;Min_cycle;Max_cycle;Signal;HPM_P1;HPM_P2
2021/10/29 00:00:21;;;;;;;23.27;14.35;;;;;;;6.82;87.93;101595.78;5032338;28;20029;-64
2021/10/29 00:02:47;;;;;;;18.00;13.13;;;;;;;6.84;87.71;101581.38;5032048;28;20488;-64
2021/10/29 00:05:12;;;;;;;20.85;13.38;;;;;;;6.92;88.31;101585.38;5032090;28;20021;-66
2021/10/29 00:07:38;;;;;;;19.88;12.68;;;;;;;6.53;88.48;101498.78;5032365;28;20027;-66
2021/10/29 00:10:05;;;;;;;20.75;13.65;;;;;;;6.93;89.28;101566.63;5032250;28;20111;-66
2021/10/29 00:12:30;;;;;;;22.45;14.05;;;;;;;6.89;87.94;101558.59;5032397;28;20030;-65
2021/10/29 00:14:56;;;;;;;25.95;15.23;;;;;;;6.85;88.01;101578.00;5031790;28;20032;-65
2021/10/29 00:17:22;;;;;;;25.42;14.82;;;;;;;6.92;88.00;101577.66;5031743;28;20033;-65
2021/10/29 00:19:48;;;;;;;23.92;15.20;;;;;;;6.84;87.25;101573.69;5032256;28;20144;-64
2021/10/29 00:22:13;;;;;;;20.40;13.68;;;;;;;6.72;88.06;101575.41;5032154;28;20029;-67
2021/10/29 00:24:39;;;;;;;23.48;14.13;;;;;;;6.62;88.50;101576.41;5031979;28;20036;-66
2021/10/29 00:27:05;;;;;;;20.83;13.00;;;;;;;6.40;89.16;101568.88;5031710;28;20029;-64
2021/10/29 00:29:31;;;;;;;19.73;14.30;;;;;;;6.34;89.74;101573.56;5031728;28;20021;-63
2021/10/29 00:31:56;;;;;;;40.50;24.58;;;;;;;6.12;90.18;101564.31;5031805;28;20053;-65
2021/10/29 00:34:22;;;;;;;22.10;14.07;;;;;;;6.15;90.42;101569.66;5031692;28;20057;-64
2021/10/29 00:36:48;;;;;;;18.33;13.45;;;;;;;6.05;90.62;101567.22;5031810;28;20068;-64
2021/10/29 00:39:14;;;;;;;16.67;13.15;;;;;;;5.88;90.59;101541.22;5031182;28;20454;-65
2021/10/29 00:41:40;;;;;;;22.15;13.85;;;;;;;5.98;90.30;101558.13;5032072;28;20084;-63
2021/10/29 00:44:06;;;;;;;20.52;13.93;;;;;;;5.53;89.90;101483.13;5031424;28;20531;-66
2021/10/29 00:46:32;;;;;;;20.60;13.45;;;;;;;5.01;90.03;101388.03;5031563;28;20022;-63
2021/10/29 00:48:57;;;;;;;16.92;12.68;;;;;;;5.87;90.17;101567.63;5031417;28;20022;-65
2021/10/29 00:51:23;;;;;;;18.67;11.95;;;;;;;5.75;90.54;101556.47;5031388;28;20033;-63
2021/10/29 00:53:50;;;;;;;19.73;12.50;;;;;;;5.11;91.47;101476.59;5031214;28;20539;-64
2021/10/29 00:56:17;;;;;;;19.35;13.48;;;;;;;5.49;91.52;101556.28;5031424;28;20026;-65
2021/10/29 00:58:42;;;;;;;17.80;12.23;;;;;;;5.39;91.39;101558.06;5012524;28;20052;-65
2021/10/29 01:01:08;;;;;;;20.98;13.15;;;;;;;4.82;91.68;101457.38;5031374;28;20026;-65
2021/10/29 01:03:38;;;;;;;20.88;13.90;;;;;;;5.38;91.02;101551.16;5031231;28;20108;-65
2021/10/29 01:06:04;;;;;;;20.85;13.82;;;;;;;5.32;90.94;101542.22;5031389;28;20044;-63
2021/10/29 01:08:30;;;;;;;21.88;13.63;;;;;;;5.38;91.06;101541.78;5031435;28;20469;-66
2021/10/29 01:10:56;;;;;;;18.20;13.20;;;;;;;4.95;90.60;101459.22;5030884;28;20037;-72
2021/10/29 01:13:21;;;;;;;17.33;13.13;;;;;;;5.54;90.05;101550.63;5030593;28;20512;-66
2021/10/29 01:15:47;;;;;;;21.00;14.75;;;;;;;5.37;90.10;101523.75;5030914;28;20063;-66
2021/10/29 01:18:13;;;;;;;22.73;16.05;;;;;;;5.53;89.88;101549.72;5031044;28;20048;-66
2021/10/29 01:20:38;;;;;;;19.45;14.43;;;;;;;5.45;90.08;101548.28;5031168;28;20156;-66
2021/10/29 01:23:04;;;;;;;19.77;12.98;;;;;;;5.29;90.00;101512.94;5031179;28;20407;-66
2021/10/29 01:25:29;;;;;;;23.50;14.30;;;;;;;5.35;90.51;101541.56;5030018;28;20112;-66
2021/10/29 01:27:54;;;;;;;20.90;13.82;;;;;;;5.27;90.73;101529.84;5011838;28;20543;-66
2021/10/29 01:30:20;;;;;;;28.73;14.15;;;;;;;5.50;90.75;101549.50;5030886;28;20040;-67
2021/10/29 01:32:46;;;;;;;18.55;14.18;;;;;;;5.46;90.53;101547.50;5031311;28;20061;-66
2021/10/29 01:35:13;;;;;;;20.77;14.75;;;;;;;5.27;90.94;101535.88;5031024;28;20060;-66
2021/10/29 01:37:41;;;;;;;20.52;14.10;;;;;;;4.91;92.18;101493.91;5031027;28;20537;-66
2021/10/29 01:40:09;;;;;;;19.88;13.02;;;;;;;5.23;91.96;101528.72;5031036;28;20119;-66
2021/10/29 01:42:35;;;;;;;18.50;12.73;;;;;;;5.18;92.49;101540.28;5029643;28;20030;-66
2021/10/29 01:45:01;;;;;;;17.33;12.10;;;;;;;5.33;92.66;101548.22;5030899;28;20025;-66
2021/10/29 01:47:27;;;;;;;16.67;12.18;;;;;;;5.45;91.68;101545.72;5031105;28;20029;-66
2021/10/29 01:49:53;;;;;;;18.55;12.02;;;;;;;5.53;90.87;101547.16;5012360;28;20037;-65
2021/10/29 01:52:18;;;;;;;20.48;14.98;;;;;;;5.29;91.63;101544.53;5031299;28;20049;-66
2021/10/29 01:54:44;;;;;;;24.15;14.80;;;;;;;5.25;92.41;101549.34;5031140;28;20017;-66
2021/10/29 01:57:09;;;;;;;24.63;16.55;;;;;;;5.27;91.55;101525.63;5031060;28;20053;-65
2021/10/29 01:59:35;;;;;;;23.85;16.00;;;;;;;5.29;91.46;101544.53;5031342;28;20406;-65
2021/10/29 02:02:00;;;;;;;20.52;15.45;;;;;;;5.16;91.26;101550.41;5031099;28;20021;-66
2021/10/29 02:04:26;;;;;;;30.25;19.88;;;;;;;5.01;90.85;101523.66;5031038;28;20037;-67
2021/10/29 02:06:51;;;;;;;27.35;16.17;;;;;;;4.49;91.21;101448.91;5015330;28;20507;-66
2021/10/29 02:09:17;;;;;;;19.25;14.82;;;;;;;5.07;91.53;101541.13;5035039;28;20040;-66
2021/10/29 02:11:43;;;;;;;20.50;14.77;;;;;;;5.15;90.96;101535.81;5034522;28;20069;-66
2021/10/29 02:14:09;;;;;;;21.52;13.55;;;;;;;5.23;90.51;101554.31;5034840;28;20063;-66
2021/10/29 02:16:35;;;;;;;18.73;13.65;;;;;;;5.03;90.89;101547.69;5034468;28;20029;-66
2021/10/29 02:19:01;;;;;;;18.77;13.20;;;;;;;4.95;90.71;101531.75;5015970;28;20033;-66
2021/10/29 02:21:28;;;;;;;18.17;12.50;;;;;;;4.98;91.50;101551.56;5034421;28;20117;-66
2021/10/29 02:23:53;;;;;;;23.23;13.23;;;;;;;5.10;91.38;101551.63;5034915;28;20042;-66
2021/10/29 02:26:19;;;;;;;18.38;13.40;;;;;;;5.06;89.75;101537.69;5034554;28;20094;-66
2021/10/29 02:28:44;;;;;;;22.73;14.65;;;;;;;5.06;90.12;101547.03;5034295;28;20412;-66
2021/10/29 02:31:10;;;;;;;22.35;15.10;;;;;;;4.97;90.16;101529.31;5034205;28;20426;-65
2021/10/29 02:33:35;;;;;;;21.17;14.35;;;;;;;5.11;89.87;101536.38;5034187;28;20551;-65
2021/10/29 02:36:01;;;;;;;18.17;12.85;;;;;;;5.22;89.61;101542.31;5034144;28;20033;-67
2021/10/29 02:38:26;;;;;;;18.35;13.20;;;;;;;5.29;88.86;101542.00;5034166;28;20034;-66
2021/10/29 02:40:52;;;;;;;22.83;13.57;;;;;;;5.20;88.67;101548.97;5033872;28;20039;-65
2021/10/29 02:43:18;;;;;;;24.02;15.55;;;;;;;4.74;90.70;101541.22;5033850;28;20026;-65
2021/10/29 02:45:43;;;;;;;21.27;14.07;;;;;;;4.73;90.68;101533.44;5034204;28;20034;-66
2021/10/29 02:48:09;;;;;;;20.10;14.40;;;;;;;4.86;90.34;101543.84;5033995;28;20095;-66
2021/10/29 02:50:35;;;;;;;25.05;16.73;;;;;;;4.52;89.44;101485.84;5033674;28;20030;-67
2021/10/29 02:53:04;;;;;;;27.33;17.02;;;;;;;4.92;89.57;101548.53;5033877;28;20041;-66
2021/10/29 02:55:30;;;;;;;19.52;12.23;;;;;;;4.98;89.81;101547.31;5033787;28;20585;-66
2021/10/29 02:57:55;;;;;;;29.38;18.08;;;;;;;5.02;89.46;101541.69;5033571;28;20049;-66
2021/10/29 03:00:21;;;;;;;30.45;18.45;;;;;;;5.16;88.42;101541.84;5033740;28;20575;-66
2021/10/29 03:02:47;;;;;;;35.25;18.10;;;;;;;5.23;87.60;101546.63;5033748;28;20036;-65
2021/10/29 03:05:13;;;;;;;22.42;11.50;;;;;;;5.23;87.73;101554.31;5033517;28;20454;-66
2021/10/29 03:07:39;;;;;;;17.90;12.27;;;;;;;5.15;87.45;101551.19;5033681;28;20029;-66
2021/10/29 03:10:07;;;;;;;18.38;11.57;;;;;;;5.03;87.44;101534.88;5033870;28;20453;-66
2021/10/29 03:12:33;;;;;;;17.58;11.65;;;;;;;4.98;87.55;101542.19;5014909;28;20041;-66
2021/10/29 03:14:59;;;;;;;21.05;12.32;;;;;;;4.80;87.62;101515.22;5032444;28;20121;-65
2021/10/29 03:17:24;;;;;;;18.52;10.70;;;;;;;4.95;87.18;101536.88;5033837;28;20159;-65
2021/10/29 03:19:50;;;;;;;16.70;10.40;;;;;;;5.05;87.14;101537.56;5033388;28;20032;-66
2021/10/29 03:22:16;;;;;;;16.42;11.32;;;;;;;5.07;86.29;101529.25;5033304;28;20060;-65
2021/10/29 03:24:41;;;;;;;17.35;10.85;;;;;;;4.96;86.76;101535.19;5033401;28;20399;-65
2021/10/29 03:27:07;;;;;;;17.13;10.70;;;;;;;4.90;86.91;101548.41;5033635;28;20706;-66
2021/10/29 03:29:32;;;;;;;17.45;10.95;;;;;;;4.83;87.24;101539.34;5033208;28;20032;-65
2021/10/29 03:31:58;;;;;;;18.83;12.13;;;;;;;4.69;87.89;101517.81;5033157;28;20041;-65
2021/10/29 03:34:23;;;;;;;18.90;11.63;;;;;;;4.70;87.94;101534.97;5033125;28;20554;-66
2021/10/29 03:36:49;;;;;;;18.98;12.27;;;;;;;4.33;89.48;101549.09;5033583;28;20385;-66
2021/10/29 03:39:33;;;;;;;20.55;11.63;;;;;;;4.04;90.92;101563.00;5032974;28;20029;-66
2021/10/29 03:42:02;;;;;;;16.75;10.55;;;;;;;3.75;92.42;101563.16;5032809;28;20038;-66
2021/10/29 03:44:56;;;;;;;19.52;10.93;;;;;;;3.04;93.09;101459.59;5032931;28;20030;-63
2021/10/29 03:47:22;;;;;;;15.57;10.98;;;;;;;3.67;92.98;101549.78;5032801;28;20091;-65
2021/10/29 03:49:54;;;;;;;22.10;10.65;;;;;;;3.75;92.38;101542.72;5032908;28;20037;-66
2021/10/29 03:52:31;;;;;;;16.45;10.45;;;;;;;4.05;90.96;101554.56;5027914;28;20443;-66
2021/10/29 03:55:05;;;;;;;18.08;11.25;;;;;;;4.26;90.17;101552.84;5023839;28;20439;-66
2021/10/29 03:57:30;;;;;;;16.67;11.23;;;;;;;4.36;89.62;101551.88;5022140;28;20119;-66
2021/10/29 03:59:56;;;;;;;16.65;12.07;;;;;;;4.38;89.08;101553.78;5029548;28;20033;-66
2021/10/29 04:02:23;;;;;;;18.13;10.88;;;;;;;4.21;88.47;101531.09;5029489;28;20040;-67
2021/10/29 04:04:48;;;;;;;17.00;11.07;;;;;;;4.26;88.12;101519.59;5028306;28;20032;-67
2021/10/29 04:07:14;;;;;;;16.25;10.90;;;;;;;4.45;87.77;101544.03;5025580;28;20037;-67
2021/10/29 04:09:42;;;;;;;16.23;11.38;;;;;;;4.33;87.41;101529.53;5026001;28;20411;-66
2021/10/29 04:12:07;;;;;;;18.08;11.38;;;;;;;4.49;87.30;101553.75;5021910;28;20483;-67
2021/10/29 04:14:33;;;;;;;18.10;11.32;;;;;;;4.36;87.66;101547.69;5021325;28;20030;-67
2021/10/29 04:16:58;;;;;;;23.58;12.25;;;;;;;4.35;87.41;101540.78;5020847;28;20064;-67
2021/10/29 04:19:24;;;;;;;21.13;13.23;;;;;;;4.49;87.55;101551.22;5013161;28;20056;-67
2021/10/29 04:21:50;;;;;;;19.35;12.02;;;;;;;4.37;87.55;101529.00;5012359;28;20536;-66
2021/10/29 04:24:15;;;;;;;21.25;13.13;;;;;;;4.25;88.04;101522.00;5012816;28;20064;-67
2021/10/29 04:26:41;;;;;;;25.70;14.50;;;;;;;3.83;88.77;101459.97;5031613;28;20099;-66
2021/10/29 04:29:16;;;;;;;30.77;14.85;;;;;;;4.32;89.20;101542.19;5030750;28;20468;-67
2021/10/29 04:31:50;;;;;;;21.55;14.50;;;;;;;4.46;88.86;101549.31;5031977;28;20044;-67
2021/10/29 04:34:25;;;;;;;21.10;12.73;;;;;;;4.48;89.31;101550.28;5031704;28;20045;-68
2021/10/29 04:36:53;;;;;;;21.48;12.40;;;;;;;4.54;89.15;101555.88;5031916;28;20030;-67
2021/10/29 04:39:19;;;;;;;28.45;18.13;;;;;;;4.44;88.37;101529.50;5029782;28;20037;-67
2021/10/29 04:41:49;;;;;;;21.25;13.40;;;;;;;4.65;88.73;101555.88;5032046;28;20112;-66
2021/10/29 04:44:15;;;;;;;20.83;13.23;;;;;;;4.49;89.53;101558.88;5031898;28;20048;-66
2021/10/29 04:46:40;;;;;;;19.85;12.48;;;;;;;4.56;88.75;101550.94;5031688;28;20034;-67
2021/10/29 04:49:06;;;;;;;19.85;12.95;;;;;;;4.54;88.03;101537.13;5032001;28;20034;-67
2021/10/29 04:51:33;;;;;;;26.08;13.93;;;;;;;4.63;87.72;101560.84;5031576;28;20030;-68
2021/10/29 04:54:00;;;;;;;19.70;13.60;;;;;;;4.46;87.67;101531.41;5031325;28;20025;-67
2021/10/29 04:56:25;;;;;;;23.63;13.63;;;;;;;4.66;87.88;101563.66;5031979;28;20038;-67
2021/10/29 04:58:51;;;;;;;21.55;13.90;;;;;;;4.71;87.86;101561.47;5032028;28;20080;-67
2021/10/29 05:01:16;;;;;;;18.80;12.55;;;;;;;4.76;87.70;101561.78;5031795;28;20087;-67
2021/10/29 05:03:42;;;;;;;20.02;12.93;;;;;;;4.85;87.71;101560.84;5031510;28;20498;-67
2021/10/29 05:06:08;;;;;;;21.55;14.00;;;;;;;4.87;87.05;101558.41;5031370;28;20052;-65
2021/10/29 05:08:37;;;;;;;24.20;15.13;;;;;;;4.75;86.53;101572.78;5031410;28;20031;-67
2021/10/29 05:11:03;;;;;;;25.45;19.08;;;;;;;4.74;86.30;101574.47;5031350;28;20098;-66
2021/10/29 05:13:28;;;;;;;24.80;13.75;;;;;;;4.73;86.03;101567.56;5031492;28;20439;-67
2021/10/29 05:15:53;;;;;;;32.60;13.38;;;;;;;4.51;86.58;101575.22;5031444;28;20443;-67
2021/10/29 05:18:21;;;;;;;26.42;13.60;;;;;;;4.35;87.56;101576.56;5031549;28;20033;-66
2021/10/29 05:20:47;;;;;;;23.10;13.68;;;;;;;4.21;88.25;101589.88;5030199;28;20026;-66
2021/10/29 05:23:13;;;;;;;32.78;13.75;;;;;;;4.02;89.03;101590.94;5031356;28;20443;-66
2021/10/29 05:25:38;;;;;;;20.42;12.43;;;;;;;3.89;89.28;101583.97;5031442;28;20037;-67
2021/10/29 05:28:04;;;;;;;21.77;13.52;;;;;;;4.01;89.20;101594.31;5031398;28;20041;-67
2021/10/29 05:30:30;;;;;;;21.35;13.60;;;;;;;4.12;89.04;101596.81;5031268;28;20053;-66
2021/10/29 05:32:56;;;;;;;21.70;14.32;;;;;;;4.15;88.63;101581.72;5031189;28;20029;-67
2021/10/29 05:35:21;;;;;;;22.35;13.48;;;;;;;4.32;88.38;101601.88;5031203;28;20416;-67
2021/10/29 05:37:47;;;;;;;21.13;15.45;;;;;;;3.89;88.37;101514.97;5031160;28;20037;-66
2021/10/29 05:40:12;;;;;;;19.02;13.80;;;;;;;4.38;87.83;101588.69;5031519;28;20100;-67
2021/10/29 05:42:40;;;;;;;18.70;14.32;;;;;;;4.45;88.95;101592.63;5035741;28;20116;-66
2021/10/29 05:48:27;;;;;;;17.00;11.88;;;;;;;4.34;89.40;101590.09;5061322;23;20152;-67
2021/10/29 05:50:55;;;;;;;14.18;10.60;;;;;;;4.01;89.11;101517.66;5014315;28;20507;-67
2021/10/29 05:55:55;;;;;;;16.73;12.18;;;;;;;4.66;89.22;101616.44;5014397;28;20033;-66
2021/10/29 05:58:20;;;;;;;17.85;12.13;;;;;;;4.64;90.06;101607.78;5013743;28;20059;-67
2021/10/29 06:00:46;;;;;;;21.52;11.95;;;;;;;4.82;90.55;101618.56;5012731;28;20037;-65
2021/10/29 06:03:12;;;;;;;18.60;11.70;;;;;;;4.93;90.99;101620.28;5014188;28;20116;-67
2021/10/29 06:05:38;;;;;;;19.58;12.55;;;;;;;4.99;90.63;101596.88;5014118;28;20030;-67
2021/10/29 06:08:04;;;;;;;19.73;12.25;;;;;;;4.94;90.88;101624.66;5014513;28;20476;-66
2021/10/29 06:10:30;;;;;;;15.90;11.70;;;;;;;3.75;91.87;101445.69;5014138;28;20123;-66
2021/10/29 06:12:55;;;;;;;19.60;12.88;;;;;;;4.84;92.83;101606.78;5013920;28;20030;-68
2021/10/29 06:15:22;;;;;;;19.75;13.88;;;;;;;5.05;92.45;101586.19;5014279;28;20491;-65
2021/10/29 06:17:47;;;;;;;22.27;16.30;;;;;;;5.04;91.14;101557.16;5014045;28;20088;-67
2021/10/29 06:20:13;;;;;;;21.33;14.27;;;;;;;5.54;91.06;101617.22;5013857;28;20459;-67
2021/10/29 06:22:43;;;;;;;19.65;12.93;;;;;;;5.73;89.83;101611.81;5013706;28;20057;-67
2021/10/29 06:25:15;;;;;;;18.00;12.90;;;;;;;5.83;89.33;101614.28;5013724;28;20073;-67
2021/10/29 06:30:24;;;;;;;17.95;13.05;;;;;;;5.31;91.28;101611.25;5013844;28;20044;-67
2021/10/29 06:32:50;;;;;;;17.50;13.65;;;;;;;5.34;92.13;101614.03;5013775;28;20030;-67
2021/10/29 06:35:15;;;;;;;17.10;12.45;;;;;;;5.34;93.26;101614.03;5013837;28;20037;-67
2021/10/29 06:37:41;;;;;;;16.83;12.65;;;;;;;5.75;92.21;101617.97;5012229;28;20088;-67
2021/10/29 06:40:11;;;;;;;16.52;13.02;;;;;;;5.96;91.24;101614.41;5013622;28;20030;-67
2021/10/29 06:42:36;;;;;;;16.25;12.85;;;;;;;6.18;90.88;101612.56;5013501;28;20030;-67
2021/10/29 06:45:20;;;;;;;17.20;13.15;;;;;;;6.35;90.48;101618.94;5013576;28;20116;-66
2021/10/29 06:47:53;;;;;;;15.90;12.55;;;;;;;5.88;90.95;101543.78;4969303;28;1292994;-67
2021/10/29 07:01:20;;;;;;;25.08;16.77;;;;;;;6.88;91.56;101613.28;5014195;28;20096;-66
2021/10/29 07:41:52;;;;;;;21.73;17.38;;;;;;;9.12;88.93;101578.13;4991576;28;20076;-68
2021/10/29 07:44:25;;;;;;;22.95;14.38;;;;;;;9.30;88.10;101574.09;5008281;28;20153;-67
2021/10/29 07:46:51;;;;;;;16.48;13.13;;;;;;;9.28;87.26;101570.50;5013057;28;20133;-66
2021/10/29 07:49:17;;;;;;;16.60;13.73;;;;;;;9.45;87.08;101579.25;5013363;28;20038;-67
2021/10/29 07:51:43;;;;;;;19.50;13.95;;;;;;;9.64;85.60;101575.19;5012913;28;20030;-66
2021/10/29 07:54:09;;;;;;;18.23;12.43;;;;;;;9.61;86.53;101580.16;5012945;28;20036;-69
2021/10/29 07:56:35;;;;;;;16.38;12.90;;;;;;;9.69;84.64;101572.09;5012989;28;20146;-66
2021/10/29 07:59:02;;;;;;;19.13;12.27;;;;;;;9.77;84.66;101567.38;5012826;28;20050;-66
2021/10/29 08:01:28;;;;;;;17.23;12.27;;;;;;;9.89;83.42;101574.91;5012820;28;20041;-66
2021/10/29 08:03:53;;;;;;;17.45;12.63;;;;;;;10.01;83.04;101564.41;5012024;28;20029;-67
2021/10/29 08:06:19;;;;;;;18.17;13.82;;;;;;;9.97;83.06;101523.75;5028211;28;20022;-66
2021/10/29 08:08:46;;;;;;;17.60;13.25;;;;;;;10.30;82.47;101549.69;5010830;28;20069;-67
2021/10/29 08:11:11;;;;;;;20.25;14.65;;;;;;;10.38;82.04;101558.78;5012598;28;20030;-67
2021/10/29 08:13:37;;;;;;;19.25;14.23;;;;;;;10.52;82.79;101542.34;5012563;28;20033;-67
2021/10/29 08:16:04;;;;;;;15.50;11.13;;;;;;;10.36;82.21;101557.78;5012455;28;20030;-70
2021/10/29 08:18:32;;;;;;;16.08;13.93;;;;;;;10.47;82.16;101550.66;5013035;28;20026;-67
2021/10/29 08:20:58;;;;;;;25.05;20.55;;;;;;;10.50;83.49;101549.13;5012732;28;20033;-66
2021/10/29 08:23:24;;;;;;;24.45;17.30;;;;;;;10.67;81.70;101551.72;5012480;28;20034;-66
2021/10/29 08:25:51;;;;;;;16.27;13.25;;;;;;;10.62;82.25;101543.72;5012918;28;20030;-67
2021/10/29 08:28:16;;;;;;;18.27;14.10;;;;;;;10.16;82.17;101467.22;5012375;28;20032;-68
2021/10/29 08:30:42;;;;;;;17.88;13.02;;;;;;;10.71;81.91;101563.13;5012353;28;20034;-68
2021/10/29 08:33:07;;;;;;;15.98;12.75;;;;;;;10.76;82.91;101526.38;5012632;28;20026;-68
2021/10/29 08:35:33;;;;;;;15.05;12.10;;;;;;;10.77;81.10;101497.16;5012320;28;20026;-67
2021/10/29 08:37:58;;;;;;;14.50;10.75;;;;;;;11.21;79.74;101545.91;5012232;28;20034;-67
2021/10/29 08:40:25;;;;;;;17.23;12.77;;;;;;;11.30;79.83;101548.97;5012399;28;20033;-66
2021/10/29 08:42:51;;;;;;;13.77;10.82;;;;;;;11.41;79.67;101554.69;5012246;28;20025;-67
2021/10/29 08:45:18;;;;;;;14.95;11.02;;;;;;;11.57;78.42;101546.03;5012121;28;20137;-67
2021/10/29 08:47:45;;;;;;;18.02;11.10;;;;;;;11.67;79.11;101548.25;5012325;28;20108;-66
2021/10/29 08:50:17;;;;;;;12.32;10.07;;;;;;;11.40;78.29;101481.44;5012035;28;20037;-67
2021/10/29 08:52:46;;;;;;;14.05;10.60;;;;;;;11.82;78.05;101536.09;5011974;28;20037;-66
2021/10/29 08:55:16;;;;;;;14.07;9.20;;;;;;;11.28;78.64;101541.13;5012124;28;20064;-66
2021/10/29 08:57:46;;;;;;;13.73;10.20;;;;;;;11.33;79.27;101538.81;5011848;28;20443;-67
2021/10/29 09:00:16;;;;;;;13.00;9.00;;;;;;;11.52;78.20;101516.47;5011928;28;20108;-67
2021/10/29 09:03:08;;;;;;;13.25;9.50;;;;;;;11.94;76.06;101537.50;5011825;28;20096;-68
2021/10/29 09:05:50;;;;;;;12.07;7.35;;;;;;;12.14;74.49;101539.34;5011625;28;20084;-66
2021/10/29 09:08:22;;;;;;;14.52;8.77;;;;;;;11.71;74.36;101446.69;5011632;28;20018;-67
2021/10/29 09:31:28;;;;;;;22.27;8.95;;;;;;;12.93;69.49;101466.91;5011665;28;20095;-67
2021/10/29 09:34:04;;;;;;;15.55;7.07;;;;;;;13.34;68.86;101521.38;5011732;28;20122;-67
2021/10/29 09:36:37;;;;;;;10.60;7.35;;;;;;;13.47;68.32;101515.03;5011544;28;20488;-66
2021/10/29 09:39:17;;;;;;;14.10;7.70;;;;;;;13.62;69.54;101512.19;5011298;28;20492;-66
2021/10/29 09:41:43;;;;;;;11.77;7.63;;;;;;;13.79;66.36;101513.75;5011230;28;20033;-66
2021/10/29 09:44:13;;;;;;;15.15;8.38;;;;;;;13.55;66.41;101457.44;5011439;28;20060;-67
2021/10/29 09:46:52;;;;;;;23.25;9.00;;;;;;;13.56;66.07;101448.84;5011407;28;20135;-67
2021/10/29 09:49:31;;;;;;;10.55;6.43;;;;;;;14.11;65.16;101508.97;5011409;28;20058;-66
2021/10/29 09:57:34;;;;;;;11.52;6.30;;;;;;;14.16;63.34;101496.16;5011293;28;20030;-68
2021/10/29 10:00:03;;;;;;;11.93;6.63;;;;;;;14.19;64.50;101491.97;5011234;28;20030;-67
2021/10/29 10:02:29;;;;;;;10.68;6.63;;;;;;;14.26;63.99;101487.91;5011010;28;20267;-67
2021/10/29 10:05:00;;;;;;;12.07;6.78;;;;;;;14.42;62.18;101489.38;5011360;28;20038;-67
2021/10/29 10:07:31;;;;;;;11.35;7.25;;;;;;;14.39;64.29;101482.34;5011432;28;20510;-67
2021/10/29 10:09:59;;;;;;;13.85;7.95;;;;;;;14.41;64.26;101474.59;5010128;28;20057;-68
2021/10/29 10:12:33;;;;;;;11.82;6.20;;;;;;;14.48;61.69;101473.09;5009956;28;20029;-68
2021/10/29 10:15:04;;;;;;;10.07;6.75;;;;;;;14.43;62.38;101480.75;5010974;28;20037;-67
2021/10/29 10:17:31;;;;;;;11.60;8.20;;;;;;;14.51;63.27;101468.03;5011184;28;20026;-67
2021/10/29 10:19:59;;;;;;;9.77;5.03;;;;;;;14.64;61.60;101464.16;5011072;28;20026;-66
2021/10/29 10:22:33;;;;;;;12.68;6.13;;;;;;;14.81;60.81;101451.81;5011239;28;20026;-69
2021/10/29 10:25:10;;;;;;;16.70;8.60;;;;;;;14.98;60.96;101468.88;5010971;28;20030;-68
2021/10/29 10:28:30;;;;;;;13.35;7.35;;;;;;;14.77;61.65;101450.81;5013437;28;20507;-67
2021/10/29 10:45:00;;;;;;;21.35;9.07;;;;;;;15.36;59.90;101435.50;5013518;28;20032;-67
2021/10/29 10:47:26;;;;;;;15.07;6.50;;;;;;;15.40;60.97;101433.84;5011359;28;20200;-67
2021/10/29 10:50:07;;;;;;;10.90;6.22;;;;;;;15.38;60.41;101427.72;5013421;28;20053;-66
2021/10/29 10:59:01;;;;;;;10.40;6.25;;;;;;;15.25;61.67;101426.41;5030951;28;20000;-66
2021/10/29 11:12:41;;;;;;;16.67;5.95;;;;;;;15.51;60.41;101405.59;5011223;28;20073;-67
2021/10/29 11:15:08;;;;;;;7.70;5.45;;;;;;;15.69;60.47;101405.28;5009861;28;20033;-65
2021/10/29 11:17:59;;;;;;;9.98;6.57;;;;;;;14.97;61.08;101266.91;5002366;28;20045;-66
2021/10/29 11:23:28;;;;;;;8.20;4.80;;;;;;;16.04;59.70;101386.38;5001072;28;20049;-67
2021/10/29 11:26:04;;;;;;;9.63;5.20;;;;;;;16.24;58.52;101400.00;4989221;28;20130;-68
2021/10/29 11:28:37;;;;;;;11.30;5.05;;;;;;;16.26;58.40;101382.66;4988367;28;20465;-68
2021/10/29 11:31:06;;;;;;;9.85;5.88;;;;;;;16.32;59.22;101391.56;4990305;28;20117;-67
2021/10/29 11:33:32;;;;;;;7.55;5.55;;;;;;;16.29;57.71;101381.03;4974282;28;20043;-66
2021/10/29 11:36:12;;;;;;;9.90;7.88;;;;;;;15.65;59.81;101314.91;4970767;28;20118;-67
2021/10/29 11:38:41;;;;;;;8.18;6.05;;;;;;;16.21;61.32;101386.88;4969120;28;20035;-67
2021/10/29 11:41:21;;;;;;;14.00;5.47;;;;;;;16.32;57.85;101381.13;4970846;28;20066;-65
2021/10/29 11:43:48;;;;;;;8.85;4.90;;;;;;;15.97;57.54;101294.16;4978509;28;20575;-68
2021/10/29 11:46:15;;;;;;;8.60;4.80;;;;;;;16.48;58.66;101371.13;4970561;28;20038;-66
2021/10/29 11:48:50;;;;;;;11.45;5.28;;;;;;;15.85;58.09;101266.06;4986256;28;20048;-65
2021/10/29 11:51:16;;;;;;;10.70;5.82;;;;;;;16.46;58.16;101372.78;5009570;28;20046;-67
2021/10/29 11:53:51;;;;;;;22.45;9.13;;;;;;;16.05;56.53;101330.84;5009506;28;20720;-72
2021/10/29 12:10:13;;;;;;;8.85;4.90;;;;;;;16.66;57.34;101357.72;5009523;28;20033;-67
2021/10/29 12:12:41;;;;;;;12.00;6.60;;;;;;;16.54;55.98;101342.59;5008980;28;20053;-66
2021/10/29 12:15:15;;;;;;;15.95;7.45;;;;;;;16.60;55.35;101352.34;5009162;28;20492;-64
2021/10/29 12:18:05;;;;;;;21.17;7.57;;;;;;;16.34;56.74;101336.88;4999528;28;20034;-70
2021/10/29 12:20:36;;;;;;;18.90;7.13;;;;;;;16.29;58.27;101341.94;4995680;28;20389;-65
2021/10/29 12:23:14;;;;;;;14.48;6.82;;;;;;;16.20;57.89;101351.22;5002537;28;20080;-66
2021/10/29 12:34:42;;;;;;;9.80;4.80;;;;;;;16.30;56.67;101338.50;4950963;29;20573;-66
2021/10/29 12:59:13;;;;;;;17.08;7.18;;;;;;;16.17;57.80;101319.06;4950124;29;20121;-65
2021/10/29 13:01:51;;;;;;;14.35;5.70;;;;;;;16.05;58.45;101312.59;4949444;29;20516;-66
2021/10/29 13:04:21;;;;;;;12.02;5.68;;;;;;;16.13;57.53;101311.09;4949295;28;20051;-67
2021/10/29 13:06:50;;;;;;;42.80;8.35;;;;;;;16.06;58.13;101293.53;4928946;29;20056;-69
2021/10/29 13:09:26;;;;;;;29.73;7.47;;;;;;;16.05;57.82;101316.09;4929279;29;20134;-68
2021/10/29 13:12:09;;;;;;;10.88;7.63;;;;;;;16.01;59.16;101306.41;4998821;28;20500;-70
2021/10/29 13:14:59;;;;;;;11.35;6.38;;;;;;;16.07;59.25;101310.94;4992787;28;20018;-67
2021/10/29 13:17:31;;;;;;;18.15;11.02;;;;;;;16.06;60.32;101309.16;5016486;28;20085;-65
2021/10/29 13:36:16;;;;;;;11.75;7.28;;;;;;;15.45;60.03;101234.53;5002709;28;20152;-69
2021/10/29 13:52:33;;;;;;;11.63;7.20;;;;;;;15.10;61.96;101208.34;4993220;28;20122;-67
2021/10/29 14:00:48;;;;;;;12.50;7.95;;;;;;;15.35;61.86;101276.72;4993747;28;20396;-65
2021/10/29 14:30:10;;;;;;;21.52;7.50;;;;;;;15.42;61.57;101272.59;5012465;28;20036;-66
2021/10/29 14:35:31;;;;;;;15.15;6.60;;;;;;;15.46;61.41;101295.25;4996000;28;20173;-68
2021/10/29 14:38:01;;;;;;;116.57;15.25;;;;;;;15.49;60.94;101305.78;4996936;28;20041;-68
2021/10/29 14:40:36;;;;;;;17.00;6.47;;;;;;;15.45;60.67;101299.59;4994951;28;20378;-68
2021/10/29 14:45:39;;;;;;;13.85;6.18;;;;;;;15.27;61.01;101275.63;4993955;28;20481;-66
2021/10/29 15:51:15;;;;;;;8.60;5.80;;;;;;;14.25;65.15;101265.34;4951066;28;20504;-70
2021/10/29 15:53:43;;;;;;;9.18;5.45;;;;;;;14.60;65.23;101335.81;4951587;28;20054;-68
2021/10/29 15:56:28;;;;;;;9.25;6.70;;;;;;;14.30;65.59;101305.34;4951161;28;20032;-68
2021/10/29 16:01:32;;;;;;;12.17;5.70;;;;;;;13.99;65.92;101267.03;4952771;28;20054;-67
2021/10/29 16:17:37;;;;;;;8.75;5.93;;;;;;;14.02;68.67;101356.31;4951205;29;20034;-68
2021/10/29 16:20:03;;;;;;;11.82;6.68;;;;;;;13.94;68.88;101342.13;4951315;29;20027;-67
2021/10/29 16:22:33;;;;;;;11.82;6.63;;;;;;;14.00;69.32;101359.66;4964629;28;20030;-66
2021/10/29 16:27:59;;;;;;;13.50;7.60;;;;;;;13.89;69.95;101360.16;4988850;28;20037;-67
2021/10/29 16:30:26;;;;;;;15.70;9.60;;;;;;;13.71;70.12;101330.91;4989072;28;20493;-69
2021/10/29 16:35:36;;;;;;;15.50;8.80;;;;;;;13.88;70.34;101357.50;4989689;28;20092;-69
2021/10/29 16:38:07;;;;;;;11.80;7.50;;;;;;;13.90;70.43;101368.81;4986987;28;20049;-70